createdAt,value
2018-02-16T00:04:57.283Z,4.00
2018-02-16T00:07:25.001Z,4.10
2018-02-16T00:09:52.710Z,4.10
2018-02-16T00:12:20.576Z,4.20
2018-02-16T00:14:48.444Z,4.20
2018-02-16T00:17:16.311Z,4.30
2018-02-16T00:19:44.038Z,4.30
2018-02-16T00:22:13.890Z,4.40
2018-02-16T00:24:41.610Z,4.40
2018-02-16T00:27:09.317Z,4.50
2018-02-16T00:29:37.047Z,4.50
2018-02-16T00:32:04.762Z,4.50
2018-02-16T00:34:32.480Z,4.50
2018-02-16T00:37:00.198Z,4.50
2018-02-16T00:39:28.039Z,4.50
2018-02-16T00:41:55.758Z,4.50
2018-02-16T00:44:23.570Z,4.60
2018-02-16T00:46:51.438Z,4.30
2018-02-16T00:49:19.153Z,4.20
2018-02-16T00:51:46.866Z,4.30
2018-02-16T00:54:14.586Z,4.30
2018-02-16T00:56:42.498Z,4.40
2018-02-16T00:59:10.215Z,4.40
2018-02-16T01:01:37.945Z,4.40
2018-02-16T01:04:05.790Z,4.20
2018-02-16T01:06:33.493Z,4.10
2018-02-16T01:09:01.981Z,4.10
2018-02-16T01:11:30.466Z,4.10
2018-02-16T01:13:58.946Z,4.20
2018-02-16T01:16:27.432Z,4.20
2018-02-16T01:18:55.247Z,4.20
2018-02-16T01:21:22.965Z,4.20
2018-02-16T01:23:50.674Z,4.20
2018-02-16T01:26:18.439Z,4.20
2018-02-16T01:28:46.306Z,4.20
2018-02-16T01:31:14.174Z,4.10
2018-02-16T01:33:42.042Z,4.10
2018-02-16T01:36:09.806Z,4.10
2018-02-16T01:38:37.674Z,4.10
2018-02-16T01:41:05.408Z,4.10
2018-02-16T01:43:33.146Z,4.10
2018-02-16T01:46:01.641Z,4.10
2018-02-16T01:48:29.450Z,4.10
2018-02-16T01:50:57.316Z,3.90
2018-02-16T01:53:25.184Z,3.80
2018-02-16T01:55:53.054Z,3.70
2018-02-16T01:58:20.919Z,3.70
2018-02-16T02:00:48.680Z,3.80
2018-02-16T02:03:16.410Z,3.80
2018-02-16T02:05:44.138Z,3.90
2018-02-16T02:08:11.866Z,3.80
2018-02-16T02:10:39.590Z,3.70
2018-02-16T02:13:07.310Z,3.80
2018-02-16T02:15:35.033Z,3.80
2018-02-16T02:18:02.764Z,3.80
2018-02-16T02:20:31.418Z,3.90
2018-02-16T02:22:59.136Z,3.90
2018-02-16T02:25:26.871Z,3.90
2018-02-16T02:27:55.377Z,4.00
2018-02-16T02:30:24.014Z,3.90
2018-02-16T02:32:51.881Z,3.90
2018-02-16T02:35:19.740Z,3.70
2018-02-16T02:37:47.615Z,3.50
2018-02-16T02:40:15.354Z,3.50
2018-02-16T02:42:43.098Z,3.60
2018-02-16T02:45:10.845Z,3.70
2018-02-16T02:47:39.343Z,3.80
2018-02-16T02:50:07.078Z,3.80
2018-02-16T02:52:34.920Z,3.70
2018-02-16T02:55:02.789Z,3.70
2018-02-16T02:57:30.655Z,3.70
2018-02-16T02:59:58.522Z,3.70
2018-02-16T03:02:26.390Z,3.80
2018-02-16T03:04:54.258Z,3.70
2018-02-16T03:07:22.125Z,3.70
2018-02-16T03:09:49.859Z,3.70
2018-02-16T03:12:17.581Z,3.70
2018-02-16T03:14:45.419Z,3.70
2018-02-16T03:17:13.287Z,3.70
2018-02-16T03:19:41.018Z,3.70
2018-02-16T03:22:08.745Z,3.70
2018-02-16T03:24:36.469Z,3.70
2018-02-16T03:27:04.346Z,3.70
2018-02-16T03:29:32.073Z,3.70
2018-02-16T03:31:59.805Z,3.60
2018-02-16T03:34:28.302Z,3.50
2018-02-16T03:36:56.822Z,3.50
2018-02-16T03:39:24.605Z,3.40
2018-02-16T03:41:52.472Z,3.40
2018-02-16T03:44:20.339Z,3.30
2018-02-16T03:46:48.206Z,3.30
2018-02-16T03:49:15.936Z,3.30
2018-02-16T03:51:43.838Z,3.40
2018-02-16T03:54:11.576Z,3.30
2018-02-16T03:56:39.369Z,3.00
2018-02-16T03:59:07.236Z,3.10
2018-02-16T04:01:34.969Z,3.10
2018-02-16T04:04:02.706Z,3.20
2018-02-16T04:06:30.442Z,3.20
2018-02-16T04:08:58.200Z,3.10
2018-02-16T04:11:25.941Z,3.20
2018-02-16T04:13:53.824Z,3.20
2018-02-16T04:16:22.517Z,3.10
2018-02-16T04:18:50.249Z,3.10
2018-02-16T04:21:18.041Z,3.10
2018-02-16T04:23:45.777Z,3.10
2018-02-16T04:26:13.502Z,3.10
2018-02-16T04:28:42.005Z,3.00
2018-02-16T04:31:09.748Z,3.00
2018-02-16T04:33:38.249Z,2.80
2018-02-16T04:36:06.064Z,2.80
2018-02-16T04:38:33.932Z,2.40
2018-02-16T04:41:01.669Z,2.30
2018-02-16T04:43:29.458Z,2.00
2018-02-16T04:45:57.329Z,1.80
2018-02-16T04:48:25.062Z,1.60
2018-02-16T04:50:52.960Z,1.50
2018-02-16T04:53:20.828Z,1.50
2018-02-16T04:55:48.695Z,1.60
2018-02-16T04:58:16.425Z,1.50
2018-02-16T05:00:44.226Z,1.60
2018-02-16T05:03:11.973Z,1.50
2018-02-16T05:05:39.694Z,1.30
2018-02-16T05:08:08.189Z,1.10
2018-02-16T05:10:36.002Z,1.10
2018-02-16T05:13:03.868Z,1.00
2018-02-16T05:15:31.601Z,1.10
2018-02-16T05:17:59.333Z,1.30
2018-02-16T05:20:27.880Z,1.50
2018-02-16T05:22:55.748Z,1.50
2018-02-16T05:25:23.482Z,1.60
2018-02-16T05:27:51.214Z,1.70
2018-02-16T05:30:19.759Z,1.70
2018-02-16T05:32:47.625Z,1.70
2018-02-16T05:35:15.365Z,1.70
2018-02-16T05:37:43.259Z,1.70
2018-02-16T05:40:10.982Z,1.70
2018-02-16T05:42:38.788Z,1.70
2018-02-16T05:45:06.657Z,1.60
2018-02-16T05:47:34.522Z,1.50
2018-02-16T05:50:02.394Z,1.50
2018-02-16T05:52:30.185Z,1.60
2018-02-16T05:54:58.698Z,1.60
2018-02-16T05:57:26.424Z,1.60
2018-02-16T05:59:54.162Z,1.50
2018-02-16T06:02:21.938Z,1.40
2018-02-16T06:04:49.799Z,1.50
2018-02-16T06:07:17.561Z,1.40
2018-02-16T06:09:45.430Z,1.40
2018-02-16T06:12:13.297Z,1.50
2018-02-16T06:14:41.162Z,1.60
2018-02-16T06:17:09.033Z,1.70
2018-02-16T06:19:36.766Z,1.70
2018-02-16T06:22:04.485Z,1.50
2018-02-16T06:24:32.216Z,1.40
2018-02-16T06:26:59.946Z,1.50
2018-02-16T06:29:27.754Z,1.50
2018-02-16T06:31:55.485Z,1.50
2018-02-16T06:34:23.230Z,1.50
2018-02-16T06:36:51.718Z,1.40
2018-02-16T06:39:19.450Z,1.40
2018-02-16T06:41:47.296Z,1.50
2018-02-16T06:44:15.026Z,1.60
2018-02-16T06:46:42.827Z,1.60
2018-02-16T06:49:10.562Z,1.60
2018-02-16T06:51:38.289Z,1.60
2018-02-16T06:54:06.785Z,1.70
2018-02-16T06:56:34.505Z,1.60
2018-02-16T06:59:02.373Z,1.70
2018-02-16T07:01:30.237Z,1.80
2018-02-16T07:03:57.966Z,1.90
2018-02-16T07:06:25.709Z,1.90
2018-02-16T07:08:54.491Z,2.00
2018-02-16T07:11:22.980Z,2.10
2018-02-16T07:13:50.805Z,2.00
2018-02-16T07:16:18.675Z,2.10
2018-02-16T07:18:46.535Z,2.00
2018-02-16T07:21:14.261Z,2.10
2018-02-16T07:23:42.064Z,2.20
2018-02-16T07:26:09.932Z,2.20
2018-02-16T07:28:37.800Z,2.20
2018-02-16T07:31:05.672Z,2.00
2018-02-16T07:33:33.536Z,1.80
2018-02-16T07:36:01.403Z,2.00
2018-02-16T07:38:29.165Z,2.10
2018-02-16T07:40:57.034Z,2.20
2018-02-16T07:43:24.905Z,2.30
2018-02-16T07:45:52.767Z,2.40
2018-02-16T07:48:20.636Z,2.50
2018-02-16T07:50:48.400Z,2.60
2018-02-16T07:53:16.110Z,2.70
2018-02-16T07:55:44.618Z,2.90
2018-02-16T07:58:12.513Z,2.90
2018-02-16T08:00:40.383Z,2.90
2018-02-16T08:03:08.096Z,2.90
2018-02-16T08:05:35.816Z,3.00
2018-02-16T08:08:03.570Z,3.00
2018-02-16T08:10:31.285Z,3.10
2018-02-16T08:12:59.767Z,3.20
2018-02-16T08:15:28.404Z,3.10
2018-02-16T08:17:56.271Z,3.10
2018-02-16T08:20:24.142Z,3.00
2018-02-16T08:22:52.006Z,2.90
2018-02-16T08:25:19.874Z,2.90
2018-02-16T08:27:47.601Z,3.10
2018-02-16T08:30:15.326Z,3.20
2018-02-16T08:32:43.169Z,3.00
2018-02-16T08:35:10.900Z,2.80
2018-02-16T08:37:38.700Z,2.80
2018-02-16T08:40:06.426Z,3.00
2018-02-16T08:42:34.177Z,3.10
2018-02-16T08:45:01.914Z,3.10
2018-02-16T08:47:29.760Z,3.20
2018-02-16T08:49:57.558Z,3.40
2018-02-16T08:52:26.098Z,3.70
2018-02-16T08:54:53.974Z,3.60
2018-02-16T08:57:21.740Z,3.70
2018-02-16T08:59:49.468Z,3.80
2018-02-16T09:02:17.194Z,4.00
2018-02-16T09:04:44.929Z,4.10
2018-02-16T09:07:12.661Z,4.10
2018-02-16T09:09:40.384Z,4.10
2018-02-16T09:12:08.226Z,4.30
2018-02-16T09:14:36.094Z,4.30
2018-02-16T09:17:03.830Z,4.40
2018-02-16T09:19:31.557Z,4.40
2018-02-16T09:22:00.216Z,4.70
2018-02-16T09:24:28.894Z,4.70
2018-02-16T09:26:56.761Z,4.70
2018-02-16T09:29:24.498Z,4.70
2018-02-16T09:31:52.218Z,4.70
2018-02-16T09:34:19.925Z,4.80
2018-02-16T09:36:47.700Z,4.90
2018-02-16T09:39:19.479Z,4.80
2018-02-16T09:41:47.346Z,4.70
2018-02-16T09:44:15.096Z,4.60
2018-02-16T09:46:42.811Z,4.60
2018-02-16T09:49:11.301Z,4.70
2018-02-16T09:51:39.782Z,4.70
2018-02-16T09:54:08.265Z,4.80
2018-02-16T09:56:36.737Z,4.90
2018-02-16T09:59:05.209Z,4.80
2018-02-16T10:01:32.918Z,4.80
2018-02-16T10:04:00.637Z,5.00
2018-02-16T10:06:29.122Z,5.00
2018-02-16T10:08:57.777Z,4.90
2018-02-16T10:11:25.643Z,4.80
2018-02-16T10:13:53.512Z,5.10
2018-02-16T10:16:21.275Z,5.30
2018-02-16T10:18:48.990Z,5.40
2018-02-16T10:21:16.721Z,5.50
2018-02-16T10:23:44.446Z,5.60
2018-02-16T10:26:12.157Z,5.80
2018-02-16T10:28:39.998Z,5.90
2018-02-16T10:31:07.714Z,6.00
2018-02-16T10:33:35.428Z,6.20
2018-02-16T10:36:03.192Z,6.30
2018-02-16T10:38:30.955Z,6.50
2018-02-16T10:40:58.761Z,6.70
2018-02-16T10:43:27.237Z,6.90
2018-02-16T10:45:55.717Z,7.00
2018-02-16T10:48:24.205Z,7.30
2018-02-16T10:50:52.681Z,7.50
2018-02-16T10:53:21.166Z,7.60
2018-02-16T10:55:49.642Z,7.70
2018-02-16T10:58:18.122Z,7.80
2018-02-16T11:00:51.594Z,7.80
2018-02-16T11:03:25.130Z,8.00
2018-02-16T11:05:53.776Z,8.90
2018-02-16T11:08:27.379Z,8.90
2018-02-16T11:10:55.125Z,9.40
2018-02-16T11:13:22.837Z,9.70
2018-02-16T11:15:50.553Z,9.60
2018-02-16T11:18:18.339Z,9.50
2018-02-16T11:20:46.204Z,9.40
2018-02-16T11:23:14.071Z,9.20
2018-02-16T11:25:41.793Z,8.60
2018-02-16T11:28:09.506Z,8.60
2018-02-16T11:30:37.239Z,8.60
2018-02-16T11:33:04.964Z,8.50
2018-02-16T11:35:33.453Z,8.70
2018-02-16T11:38:01.947Z,9.00
2018-02-16T11:40:29.682Z,9.00
2018-02-16T11:42:57.407Z,9.50
2018-02-16T11:45:25.161Z,9.90
2018-02-16T11:47:53.052Z,10.00
2018-02-16T11:50:20.786Z,9.70
2018-02-16T11:52:48.510Z,9.40
2018-02-16T11:55:17.008Z,8.80
2018-02-16T11:57:45.500Z,8.90
2018-02-16T12:00:13.234Z,8.90
2018-02-16T12:02:40.967Z,9.00
2018-02-16T12:05:08.697Z,9.30
2018-02-16T12:07:36.422Z,9.70
2018-02-16T12:10:04.200Z,10.40
2018-02-16T12:12:32.697Z,11.50
2018-02-16T12:15:00.426Z,11.40
2018-02-16T12:17:28.185Z,11.40
2018-02-16T12:19:55.919Z,11.40
2018-02-16T12:22:23.650Z,11.50
2018-02-16T12:24:52.146Z,12.10
2018-02-16T12:27:19.882Z,12.10
2018-02-16T12:29:48.414Z,13.10
2018-02-16T12:32:16.145Z,13.10
2018-02-16T12:34:44.634Z,13.80
2018-02-16T12:37:12.370Z,13.80
2018-02-16T12:39:40.114Z,14.00
2018-02-16T12:42:07.857Z,14.00
2018-02-16T12:44:35.611Z,14.30
2018-02-16T12:47:03.365Z,14.40
2018-02-16T12:49:31.105Z,14.30
2018-02-16T12:51:59.609Z,14.30
2018-02-16T12:54:27.345Z,14.30
2018-02-16T12:56:55.833Z,14.10
2018-02-16T12:59:24.333Z,14.10
2018-02-16T13:01:52.070Z,14.10
2018-02-16T13:04:20.624Z,13.80
2018-02-16T13:06:48.366Z,13.70
2018-02-16T13:09:16.135Z,13.80
2018-02-16T13:11:43.877Z,13.90
2018-02-16T13:14:11.621Z,13.80
2018-02-16T13:16:40.120Z,14.00
2018-02-16T13:19:07.852Z,14.00
2018-02-16T13:21:35.620Z,14.10
2018-02-16T13:24:03.355Z,14.30
2018-02-16T13:26:31.105Z,14.40
2018-02-16T13:28:58.828Z,14.50
2018-02-16T13:31:27.371Z,14.60
2018-02-16T13:33:55.106Z,14.60
2018-02-16T13:36:22.886Z,14.60
2018-02-16T13:38:50.609Z,14.60
2018-02-16T13:41:19.103Z,14.90
2018-02-16T13:43:46.897Z,14.90
2018-02-16T13:46:14.618Z,14.70
2018-02-16T13:48:42.359Z,14.60
2018-02-16T13:51:10.089Z,14.50
2018-02-16T13:53:37.821Z,14.50
2018-02-16T13:56:05.561Z,14.60
2018-02-16T13:58:34.061Z,14.50
2018-02-16T14:01:02.566Z,14.50
2018-02-16T14:03:30.463Z,14.50
2018-02-16T14:05:58.332Z,14.40
2018-02-16T14:08:26.201Z,14.40
2018-02-16T14:10:54.066Z,14.40
2018-02-16T14:13:21.803Z,14.40
2018-02-16T14:15:49.542Z,14.40
2018-02-16T14:18:18.057Z,14.20
2018-02-16T14:20:45.944Z,14.20
2018-02-16T14:23:13.686Z,14.40
2018-02-16T14:25:41.454Z,14.40
2018-02-16T14:28:09.190Z,14.30
2018-02-16T14:30:36.918Z,14.40
2018-02-16T14:33:04.654Z,14.40
2018-02-16T14:35:32.385Z,14.30
2018-02-16T14:38:00.299Z,14.10
2018-02-16T14:40:28.167Z,14.00
2018-02-16T14:42:56.035Z,14.00
2018-02-16T14:45:23.782Z,13.90
2018-02-16T14:47:51.519Z,13.90
2018-02-16T14:50:19.249Z,14.00
2018-02-16T14:52:47.002Z,13.80
2018-02-16T14:55:14.732Z,13.60
2018-02-16T14:57:42.462Z,13.40
2018-02-16T15:00:10.949Z,13.10
2018-02-16T15:02:39.446Z,13.10
2018-02-16T15:05:07.169Z,13.10
2018-02-16T15:07:34.898Z,13.30
2018-02-16T15:10:02.620Z,13.40
2018-02-16T15:12:31.118Z,14.00
2018-02-16T15:14:59.027Z,14.00
2018-02-16T15:17:26.822Z,15.20
2018-02-16T15:19:55.374Z,16.80
2018-02-16T15:22:23.110Z,16.80
2018-02-16T15:24:50.842Z,17.90
2018-02-16T15:27:19.329Z,18.70
2018-02-16T15:29:47.830Z,18.20
2018-02-16T15:32:15.557Z,18.20
2018-02-16T15:34:43.318Z,17.90
2018-02-16T15:37:11.042Z,17.50
2018-02-16T15:39:38.776Z,17.60
2018-02-16T15:42:06.510Z,17.40
2018-02-16T15:44:34.233Z,16.60
2018-02-16T15:47:01.968Z,16.30
2018-02-16T15:49:29.694Z,16.10
2018-02-16T15:51:57.418Z,15.60
2018-02-16T15:54:25.146Z,15.20
2018-02-16T15:56:53.637Z,14.30
2018-02-16T15:59:22.128Z,14.20
2018-02-16T16:01:49.850Z,14.20
2018-02-16T16:04:17.704Z,14.30
2018-02-16T16:06:45.573Z,14.40
2018-02-16T16:09:13.439Z,14.30
2018-02-16T16:11:41.310Z,14.30
2018-02-16T16:14:09.834Z,13.90
2018-02-16T16:16:38.342Z,13.40
2018-02-16T16:19:06.074Z,13.40
2018-02-16T16:21:35.256Z,12.40
2018-02-16T16:24:03.090Z,12.30
2018-02-16T16:26:32.932Z,11.80
2018-02-16T16:29:00.670Z,11.40
2018-02-16T16:31:28.383Z,11.00
2018-02-16T16:33:56.854Z,10.30
2018-02-16T16:36:25.390Z,10.00
2018-02-16T16:38:53.114Z,10.00
2018-02-16T16:41:21.590Z,9.50
2018-02-16T16:43:50.065Z,9.20
2018-02-16T16:46:18.533Z,8.90
2018-02-16T16:48:46.241Z,8.90
2018-02-16T16:51:13.958Z,8.70
2018-02-16T16:53:41.809Z,8.40
2018-02-16T16:56:09.676Z,8.00
2018-02-16T16:58:37.403Z,7.80
2018-02-16T17:01:05.128Z,7.60
2018-02-16T17:03:32.848Z,7.40
2018-02-16T17:06:00.736Z,7.20
2018-02-16T17:08:28.604Z,6.80
2018-02-16T17:10:56.325Z,6.60
2018-02-16T17:13:24.132Z,6.50
2018-02-16T17:15:52.000Z,6.40
2018-02-16T17:18:19.868Z,6.40
2018-02-16T17:20:47.606Z,6.30
2018-02-16T17:23:15.329Z,6.30
2018-02-16T17:25:43.981Z,6.20
2018-02-16T17:28:11.748Z,6.10
2018-02-16T17:30:39.614Z,6.10
2018-02-16T17:33:07.330Z,5.90
2018-02-16T17:35:35.057Z,5.80
2018-02-16T17:38:02.784Z,5.70
2018-02-16T17:40:30.506Z,5.60
2018-02-16T17:42:58.991Z,5.50
2018-02-16T17:45:27.637Z,5.40
2018-02-16T17:47:55.361Z,5.40
2018-02-16T17:50:23.169Z,5.30
2018-02-16T17:52:51.034Z,5.20
2018-02-16T17:55:18.902Z,5.10
2018-02-16T17:57:46.617Z,5.00
2018-02-16T18:00:14.346Z,4.90
2018-02-16T18:02:42.101Z,4.80
2018-02-16T18:05:09.813Z,4.70
2018-02-16T18:07:37.533Z,4.70
2018-02-16T18:10:05.258Z,4.60
2018-02-16T18:12:33.153Z,4.50
2018-02-16T18:15:01.022Z,4.40
2018-02-16T18:17:28.899Z,4.40
2018-02-16T18:19:56.755Z,4.30
2018-02-16T18:22:24.470Z,4.30
2018-02-16T18:24:52.285Z,4.20
2018-02-16T18:27:20.152Z,4.20
2018-02-16T18:29:47.918Z,4.10
2018-02-16T18:32:15.783Z,4.10
2018-02-16T18:34:43.653Z,4.00
2018-02-16T18:37:11.381Z,3.90
2018-02-16T18:39:39.102Z,3.90
2018-02-16T18:42:06.831Z,3.80
2018-02-16T18:44:34.710Z,3.80
2018-02-16T18:47:02.437Z,3.80
2018-02-16T18:49:30.159Z,3.60
2018-02-16T18:51:58.005Z,3.50
2018-02-16T18:54:25.872Z,3.50
2018-02-16T18:56:53.740Z,3.40
2018-02-16T18:59:21.470Z,3.50
2018-02-16T19:01:49.189Z,3.50
2018-02-16T19:04:17.035Z,3.50
2018-02-16T19:06:44.762Z,3.50
2018-02-16T19:09:12.564Z,3.40
2018-02-16T19:11:40.433Z,3.40
2018-02-16T19:14:08.196Z,3.30
2018-02-16T19:16:36.064Z,2.90
2018-02-16T19:19:03.792Z,3.00
2018-02-16T19:21:31.593Z,3.00
2018-02-16T19:23:59.768Z,3.10
2018-02-16T19:26:28.305Z,3.10
2018-02-16T19:28:56.117Z,3.10
2018-02-16T19:31:23.842Z,3.10
2018-02-16T19:33:51.567Z,3.00
2018-02-16T19:36:19.899Z,3.00
2018-02-16T19:38:48.201Z,3.00
2018-02-16T19:41:17.503Z,3.10
2018-02-16T19:43:46.123Z,2.90
2018-02-16T19:46:15.266Z,2.80
2018-02-16T19:48:43.090Z,2.80
2018-02-16T19:51:11.598Z,3.00
2018-02-16T19:53:39.315Z,2.90
2018-02-16T19:56:07.469Z,3.00
2018-02-16T19:58:36.976Z,2.90
2018-02-16T20:01:05.764Z,2.90
2018-02-16T20:03:33.632Z,2.90
2018-02-16T20:06:01.499Z,2.90
2018-02-16T20:08:29.368Z,2.90
2018-02-16T20:10:57.086Z,2.70
2018-02-16T20:13:24.896Z,2.70
2018-02-16T20:15:53.129Z,2.60
2018-02-16T20:18:21.757Z,2.60
2018-02-16T20:20:49.627Z,2.60
2018-02-16T20:23:17.351Z,2.60
2018-02-16T20:25:45.154Z,2.60
2018-02-16T20:28:13.021Z,2.50
2018-02-16T20:30:40.889Z,2.50
2018-02-16T20:33:08.756Z,2.50
2018-02-16T20:35:36.623Z,2.40
2018-02-16T20:38:04.490Z,2.30
2018-02-16T20:40:32.358Z,2.30
2018-02-16T20:43:00.378Z,2.30
2018-02-16T20:45:28.153Z,2.20
2018-02-16T20:47:55.959Z,2.20
2018-02-16T20:50:23.710Z,2.10
2018-02-16T20:52:51.431Z,2.10
2018-02-16T20:55:19.927Z,2.10
2018-02-16T20:57:47.736Z,2.10
2018-02-16T21:00:15.466Z,2.00
2018-02-16T21:02:43.182Z,2.00
2018-02-16T21:05:11.031Z,2.00
2018-02-16T21:07:38.900Z,2.00
2018-02-16T21:10:06.766Z,2.00
2018-02-16T21:12:34.632Z,2.00
2018-02-16T21:15:02.513Z,2.00
2018-02-16T21:17:30.369Z,1.70
2018-02-16T21:19:58.234Z,1.70
2018-02-16T21:22:26.102Z,1.80
2018-02-16T21:24:53.969Z,1.80
2018-02-16T21:27:21.837Z,1.80
2018-02-16T21:29:49.703Z,1.80
2018-02-16T21:32:17.574Z,1.70
2018-02-16T21:34:45.438Z,1.70
2018-02-16T21:37:13.306Z,1.70
2018-02-16T21:39:41.173Z,1.60
2018-02-16T21:42:09.039Z,1.60
2018-02-16T21:44:36.907Z,1.60
2018-02-16T21:47:04.775Z,1.60
2018-02-16T21:49:32.642Z,1.40
2018-02-16T21:52:00.509Z,1.30
2018-02-16T21:54:28.377Z,1.30
2018-02-16T21:56:56.244Z,1.30
2018-02-16T21:59:24.110Z,1.20
2018-02-16T22:01:51.980Z,1.20
2018-02-16T22:04:19.846Z,1.20
2018-02-16T22:06:47.714Z,1.00
2018-02-16T22:09:15.662Z,0.90
2018-02-16T22:11:43.550Z,1.00
2018-02-16T22:14:11.417Z,1.00
2018-02-16T22:16:39.284Z,1.00
2018-02-16T22:19:07.152Z,0.90
2018-02-16T22:21:35.019Z,0.90
2018-02-16T22:24:02.888Z,0.80
2018-02-16T22:26:30.753Z,0.80
2018-02-16T22:28:58.621Z,0.80
2018-02-16T22:31:26.489Z,0.80
2018-02-16T22:33:54.356Z,0.80
2018-02-16T22:36:22.223Z,0.90
2018-02-16T22:38:50.090Z,1.00
2018-02-16T22:41:17.958Z,0.90
2018-02-16T22:43:45.824Z,0.90
2018-02-16T22:46:13.692Z,0.90
2018-02-16T22:48:41.559Z,1.00
2018-02-16T22:51:09.734Z,1.00
2018-02-16T22:53:43.414Z,1.00
2018-02-16T22:56:14.009Z,0.90
2018-02-16T22:58:44.497Z,0.90
2018-02-16T23:01:15.684Z,0.90
2018-02-16T23:03:46.570Z,0.80
2018-02-16T23:06:29.339Z,0.80
2018-02-16T23:09:00.177Z,0.70
2018-02-16T23:11:31.919Z,0.70
2018-02-16T23:14:03.776Z,0.70
2018-02-16T23:16:32.134Z,0.70
2018-02-16T23:19:02.308Z,0.70
2018-02-16T23:21:32.962Z,0.70
2018-02-16T23:24:03.427Z,0.70
2018-02-16T23:26:33.426Z,0.80
2018-02-16T23:29:04.662Z,0.90
2018-02-16T23:31:34.832Z,0.90
2018-02-16T23:34:05.023Z,0.80
2018-02-16T23:36:35.388Z,0.70
2018-02-16T23:39:03.552Z,0.70
2018-02-16T23:41:32.209Z,0.80
2018-02-16T23:44:00.025Z,0.70
2018-02-16T23:46:27.830Z,0.80
2018-02-16T23:48:56.476Z,1.00
2018-02-16T23:51:24.342Z,0.90
2018-02-16T23:53:52.211Z,1.00
2018-02-16T23:56:20.080Z,1.00
2018-02-16T23:58:47.949Z,1.00
